sensor_id;sensor_type;location;lat;lon;timestamp;pressure;altitude;pressure_sealevel;temperature;humidity
21902;BME280;11115;46.038;14.612;2023-04-26T00:02:15;98013.22;;;5.80;100.00
21902;BME280;11115;46.038;14.612;2023-04-26T00:04:52;98016.41;;;5.92;100.00
21902;BME280;11115;46.038;14.612;2023-04-26T00:07:44;98021.38;;;5.90;100.00
21902;BME280;11115;46.038;14.612;2023-04-26T00:10:19;98025.25;;;5.84;100.00
21902;BME280;11115;46.038;14.612;2023-04-26T00:13:03;98027.28;;;5.39;100.00
21902;BME280;11115;46.038;14.612;2023-04-26T00:15:33;98018.44;;;4.69;100.00
21902;BME280;11115;46.038;14.612;2023-04-26T00:18:07;98037.00;;;4.82;100.00
21902;BME280;11115;46.038;14.612;2023-04-26T00:20:42;98022.94;;;4.94;100.00
21902;BME280;11115;46.038;14.612;2023-04-26T00:23:14;98042.38;;;4.98;100.00
21902;BME280;11115;46.038;14.612;2023-04-26T00:25:49;98020.59;;;4.72;100.00
21902;BME280;11115;46.038;14.612;2023-04-26T00:28:21;98046.09;;;5.22;100.00
21902;BME280;11115;46.038;14.612;2023-04-26T00:30:52;98041.78;;;5.06;100.00
21902;BME280;11115;46.038;14.612;2023-04-26T00:33:23;98056.38;;;4.96;100.00
21902;BME280;11115;46.038;14.612;2023-04-26T00:36:16;98045.47;;;4.81;100.00
21902;BME280;11115;46.038;14.612;2023-04-26T00:38:51;98042.25;;;5.18;100.00
21902;BME280;11115;46.038;14.612;2023-04-26T00:41:23;98051.72;;;5.36;100.00
21902;BME280;11115;46.038;14.612;2023-04-26T00:44:03;98041.63;;;5.31;100.00
21902;BME280;11115;46.038;14.612;2023-04-26T00:46:39;98046.53;;;5.34;100.00
21902;BME280;11115;46.038;14.612;2023-04-26T00:49:16;98054.75;;;5.34;100.00
21902;BME280;11115;46.038;14.612;2023-04-26T00:51:46;98046.28;;;5.31;100.00
21902;BME280;11115;46.038;14.612;2023-04-26T00:54:20;98053.66;;;5.35;100.00
21902;BME280;11115;46.038;14.612;2023-04-26T00:56:50;98062.53;;;5.22;100.00
21902;BME280;11115;46.038;14.612;2023-04-26T00:59:22;98065.72;;;5.34;100.00
21902;BME280;11115;46.038;14.612;2023-04-26T01:01:52;98067.94;;;5.32;100.00
21902;BME280;11115;46.038;14.612;2023-04-26T01:04:32;98070.47;;;5.18;100.00
21902;BME280;11115;46.038;14.612;2023-04-26T01:07:08;98076.34;;;5.07;100.00
21902;BME280;11115;46.038;14.612;2023-04-26T01:09:43;98073.31;;;5.08;100.00
21902;BME280;11115;46.038;14.612;2023-04-26T01:12:22;98077.94;;;5.13;100.00
21902;BME280;11115;46.038;14.612;2023-04-26T01:15:01;98079.06;;;5.07;100.00
21902;BME280;11115;46.038;14.612;2023-04-26T01:17:34;98084.59;;;5.02;100.00
21902;BME280;11115;46.038;14.612;2023-04-26T01:20:08;98084.41;;;4.78;100.00
21902;BME280;11115;46.038;14.612;2023-04-26T01:22:39;98088.91;;;4.43;100.00
21902;BME280;11115;46.038;14.612;2023-04-26T01:25:18;98085.91;;;4.50;100.00
21902;BME280;11115;46.038;14.612;2023-04-26T01:27:46;98085.38;;;4.43;100.00
21902;BME280;11115;46.038;14.612;2023-04-26T01:30:24;98103.97;;;4.51;100.00
21902;BME280;11115;46.038;14.612;2023-04-26T01:32:54;98095.97;;;4.70;100.00
21902;BME280;11115;46.038;14.612;2023-04-26T01:35:24;98104.66;;;4.82;100.00
21902;BME280;11115;46.038;14.612;2023-04-26T01:37:57;98094.06;;;4.60;100.00
21902;BME280;11115;46.038;14.612;2023-04-26T01:40:31;98094.66;;;4.52;100.00
21902;BME280;11115;46.038;14.612;2023-04-26T01:43:05;98098.66;;;4.85;100.00
21902;BME280;11115;46.038;14.612;2023-04-26T01:45:36;98095.00;;;5.05;100.00
21902;BME280;11115;46.038;14.612;2023-04-26T01:48:27;98101.09;;;4.86;100.00
21902;BME280;11115;46.038;14.612;2023-04-26T01:51:07;98099.75;;;4.79;100.00
21902;BME280;11115;46.038;14.612;2023-04-26T01:53:38;98104.13;;;4.85;100.00
21902;BME280;11115;46.038;14.612;2023-04-26T01:56:10;98107.75;;;4.70;100.00
21902;BME280;11115;46.038;14.612;2023-04-26T01:58:46;98114.31;;;4.74;100.00
21902;BME280;11115;46.038;14.612;2023-04-26T02:01:21;98119.47;;;4.81;100.00
21902;BME280;11115;46.038;14.612;2023-04-26T02:03:54;98120.66;;;4.65;100.00
21902;BME280;11115;46.038;14.612;2023-04-26T02:06:26;98100.31;;;4.76;100.00
21902;BME280;11115;46.038;14.612;2023-04-26T02:08:59;98118.47;;;4.56;100.00
21902;BME280;11115;46.038;14.612;2023-04-26T02:11:29;98136.88;;;4.41;100.00
21902;BME280;11115;46.038;14.612;2023-04-26T02:14:06;98121.63;;;3.94;100.00
21902;BME280;11115;46.038;14.612;2023-04-26T02:16:38;98138.28;;;4.28;100.00
21902;BME280;11115;46.038;14.612;2023-04-26T02:19:16;98140.69;;;4.40;100.00
21902;BME280;11115;46.038;14.612;2023-04-26T02:21:55;98115.28;;;4.29;100.00
21902;BME280;11115;46.038;14.612;2023-04-26T02:24:36;98148.69;;;4.21;100.00
21902;BME280;11115;46.038;14.612;2023-04-26T02:27:14;98135.25;;;4.30;100.00
21902;BME280;11115;46.038;14.612;2023-04-26T02:29:57;98141.25;;;4.47;100.00
21902;BME280;11115;46.038;14.612;2023-04-26T02:32:30;98146.72;;;4.42;100.00
21902;BME280;11115;46.038;14.612;2023-04-26T02:35:14;98139.88;;;4.39;100.00
21902;BME280;11115;46.038;14.612;2023-04-26T02:37:51;98140.75;;;4.04;100.00
21902;BME280;11115;46.038;14.612;2023-04-26T02:40:26;98139.66;;;3.85;100.00
21902;BME280;11115;46.038;14.612;2023-04-26T02:42:58;98148.44;;;3.77;100.00
21902;BME280;11115;46.038;14.612;2023-04-26T02:45:31;98144.59;;;3.78;100.00
21902;BME280;11115;46.038;14.612;2023-04-26T02:48:04;98145.16;;;3.75;100.00
21902;BME280;11115;46.038;14.612;2023-04-26T02:50:37;98142.41;;;4.00;100.00
21902;BME280;11115;46.038;14.612;2023-04-26T02:53:12;98151.69;;;4.04;100.00
21902;BME280;11115;46.038;14.612;2023-04-26T02:55:52;98150.34;;;4.12;100.00
21902;BME280;11115;46.038;14.612;2023-04-26T02:58:32;98141.59;;;4.00;100.00
21902;BME280;11115;46.038;14.612;2023-04-26T03:01:02;98150.34;;;4.02;100.00
21902;BME280;11115;46.038;14.612;2023-04-26T03:03:32;98149.78;;;4.15;100.00
21902;BME280;11115;46.038;14.612;2023-04-26T03:06:07;98156.91;;;4.16;100.00
21902;BME280;11115;46.038;14.612;2023-04-26T03:08:37;98153.91;;;4.12;100.00
21902;BME280;11115;46.038;14.612;2023-04-26T03:11:11;98167.84;;;4.16;100.00
21902;BME280;11115;46.038;14.612;2023-04-26T03:13:39;98173.34;;;3.70;100.00
21902;BME280;11115;46.038;14.612;2023-04-26T03:16:22;98168.06;;;3.38;100.00
21902;BME280;11115;46.038;14.612;2023-04-26T03:18:57;98166.94;;;3.24;100.00
21902;BME280;11115;46.038;14.612;2023-04-26T03:21:26;98170.81;;;3.33;100.00
21902;BME280;11115;46.038;14.612;2023-04-26T03:24:01;98167.97;;;3.08;100.00
21902;BME280;11115;46.038;14.612;2023-04-26T03:26:44;98164.81;;;3.51;100.00
21902;BME280;11115;46.038;14.612;2023-04-26T03:29:18;98161.00;;;3.57;100.00
21902;BME280;11115;46.038;14.612;2023-04-26T03:31:50;98179.56;;;3.35;100.00
21902;BME280;11115;46.038;14.612;2023-04-26T03:34:25;98171.63;;;3.28;100.00
21902;BME280;11115;46.038;14.612;2023-04-26T03:36:57;98176.31;;;3.48;100.00
21902;BME280;11115;46.038;14.612;2023-04-26T03:39:35;98174.94;;;3.51;100.00
21902;BME280;11115;46.038;14.612;2023-04-26T03:42:10;98172.47;;;3.64;100.00
21902;BME280;11115;46.038;14.612;2023-04-26T03:44:38;98177.69;;;3.81;100.00
21902;BME280;11115;46.038;14.612;2023-04-26T03:47:12;98186.47;;;3.83;100.00
21902;BME280;11115;46.038;14.612;2023-04-26T03:49:45;98200.38;;;3.56;100.00
21902;BME280;11115;46.038;14.612;2023-04-26T03:52:19;98183.44;;;3.70;100.00
21902;BME280;11115;46.038;14.612;2023-04-26T03:54:57;98184.53;;;3.84;100.00
21902;BME280;11115;46.038;14.612;2023-04-26T03:57:33;98195.72;;;3.62;100.00
21902;BME280;11115;46.038;14.612;2023-04-26T04:00:10;98181.91;;;3.06;100.00
21902;BME280;11115;46.038;14.612;2023-04-26T04:02:47;98199.47;;;3.20;100.00
21902;BME280;11115;46.038;14.612;2023-04-26T04:05:24;98212.22;;;2.99;100.00
21902;BME280;11115;46.038;14.612;2023-04-26T04:07:57;98217.69;;;2.94;100.00
21902;BME280;11115;46.038;14.612;2023-04-26T04:10:25;98213.94;;;3.16;100.00
21902;BME280;11115;46.038;14.612;2023-04-26T04:13:02;98210.16;;;3.32;100.00
21902;BME280;11115;46.038;14.612;2023-04-26T04:15:30;98212.38;;;3.35;100.00
21902;BME280;11115;46.038;14.612;2023-04-26T04:18:16;98225.50;;;3.43;100.00
21902;BME280;11115;46.038;14.612;2023-04-26T04:20:51;98229.56;;;3.30;100.00
21902;BME280;11115;46.038;14.612;2023-04-26T04:23:22;98237.25;;;3.44;100.00
21902;BME280;11115;46.038;14.612;2023-04-26T04:26:07;98242.81;;;3.74;100.00
21902;BME280;11115;46.038;14.612;2023-04-26T04:28:37;98229.41;;;3.83;100.00
21902;BME280;11115;46.038;14.612;2023-04-26T04:31:07;98250.00;;;4.06;100.00
21902;BME280;11115;46.038;14.612;2023-04-26T04:33:43;98258.19;;;4.01;100.00
21902;BME280;11115;46.038;14.612;2023-04-26T04:36:19;98265.84;;;3.99;100.00
21902;BME280;11115;46.038;14.612;2023-04-26T04:38:53;98257.81;;;3.61;100.00
21902;BME280;11115;46.038;14.612;2023-04-26T04:41:25;98274.84;;;3.74;100.00
21902;BME280;11115;46.038;14.612;2023-04-26T04:44:03;98277.06;;;4.02;100.00
21902;BME280;11115;46.038;14.612;2023-04-26T04:46:47;98274.31;;;4.02;100.00
21902;BME280;11115;46.038;14.612;2023-04-26T04:49:26;98279.84;;;4.12;100.00
21902;BME280;11115;46.038;14.612;2023-04-26T04:51:54;98271.06;;;4.36;100.00
21902;BME280;11115;46.038;14.612;2023-04-26T04:54:26;98259.28;;;4.40;100.00
21902;BME280;11115;46.038;14.612;2023-04-26T04:57:13;98262.31;;;4.29;100.00
21902;BME280;11115;46.038;14.612;2023-04-26T04:59:55;98262.31;;;4.39;100.00
21902;BME280;11115;46.038;14.612;2023-04-26T05:02:37;98258.50;;;4.24;100.00
21902;BME280;11115;46.038;14.612;2023-04-26T05:05:09;98255.75;;;4.24;100.00
21902;BME280;11115;46.038;14.612;2023-04-26T05:08:03;98253.25;;;4.23;100.00
21902;BME280;11115;46.038;14.612;2023-04-26T05:10:38;98262.88;;;4.31;100.00
21902;BME280;11115;46.038;14.612;2023-04-26T05:13:07;98268.34;;;4.46;100.00
21902;BME280;11115;46.038;14.612;2023-04-26T05:15:40;98269.41;;;4.60;100.00
21902;BME280;11115;46.038;14.612;2023-04-26T05:18:11;98266.97;;;4.69;100.00
21902;BME280;11115;46.038;14.612;2023-04-26T05:20:44;98278.72;;;4.74;100.00
21902;BME280;11115;46.038;14.612;2023-04-26T05:23:22;98277.56;;;5.01;100.00
21902;BME280;11115;46.038;14.612;2023-04-26T05:25:53;98285.53;;;5.02;100.00
21902;BME280;11115;46.038;14.612;2023-04-26T05:28:57;98291.03;;;5.02;100.00
21902;BME280;11115;46.038;14.612;2023-04-26T05:31:44;98295.69;;;5.02;100.00
21902;BME280;11115;46.038;14.612;2023-04-26T05:34:41;98302.53;;;5.04;100.00
21902;BME280;11115;46.038;14.612;2023-04-26T05:37:16;98304.16;;;5.00;100.00
21902;BME280;11115;46.038;14.612;2023-04-26T05:40:02;98308.22;;;5.28;100.00
21902;BME280;11115;46.038;14.612;2023-04-26T05:42:50;98296.75;;;5.21;100.00
21902;BME280;11115;46.038;14.612;2023-04-26T05:45:18;98318.03;;;5.49;100.00
21902;BME280;11115;46.038;14.612;2023-04-26T05:47:51;98294.50;;;5.33;100.00
21902;BME280;11115;46.038;14.612;2023-04-26T05:50:25;98310.34;;;5.52;100.00
21902;BME280;11115;46.038;14.612;2023-04-26T05:52:57;98319.66;;;5.56;100.00
21902;BME280;11115;46.038;14.612;2023-04-26T05:55:33;98317.72;;;5.61;100.00
21902;BME280;11115;46.038;14.612;2023-04-26T05:58:07;98319.81;;;5.85;100.00
21902;BME280;11115;46.038;14.612;2023-04-26T06:00:40;98317.59;;;5.92;100.00
21902;BME280;11115;46.038;14.612;2023-04-26T06:03:13;98322.50;;;6.00;100.00
21902;BME280;11115;46.038;14.612;2023-04-26T06:06:01;98319.47;;;6.01;100.00
21902;BME280;11115;46.038;14.612;2023-04-26T06:08:30;98322.78;;;5.98;100.00
21902;BME280;11115;46.038;14.612;2023-04-26T06:11:01;98324.94;;;6.06;100.00
21902;BME280;11115;46.038;14.612;2023-04-26T06:13:30;98295.88;;;6.39;100.00
21902;BME280;11115;46.038;14.612;2023-04-26T06:16:09;98309.75;;;6.58;100.00
21902;BME280;11115;46.038;14.612;2023-04-26T06:18:44;98310.81;;;6.62;100.00
21902;BME280;11115;46.038;14.612;2023-04-26T06:21:15;98310.59;;;6.54;100.00
21902;BME280;11115;46.038;14.612;2023-04-26T06:23:47;98296.41;;;6.76;100.00
21902;BME280;11115;46.038;14.612;2023-04-26T06:26:29;98310.63;;;6.83;100.00
21902;BME280;11115;46.038;14.612;2023-04-26T06:29:38;98281.84;;;6.75;100.00
21902;BME280;11115;46.038;14.612;2023-04-26T06:32:15;98299.59;;;6.88;100.00
21902;BME280;11115;46.038;14.612;2023-04-26T06:34:45;98305.69;;;7.09;100.00
21902;BME280;11115;46.038;14.612;2023-04-26T06:37:17;98302.81;;;7.48;100.00
21902;BME280;11115;46.038;14.612;2023-04-26T06:39:57;98298.78;;;7.40;100.00
21902;BME280;11115;46.038;14.612;2023-04-26T06:42:31;98296.44;;;7.52;100.00
21902;BME280;11115;46.038;14.612;2023-04-26T06:45:19;98298.69;;;7.69;100.00
21902;BME280;11115;46.038;14.612;2023-04-26T06:47:53;98296.22;;;7.91;100.00
21902;BME280;11115;46.038;14.612;2023-04-26T06:50:32;98280.81;;;7.90;100.00
21902;BME280;11115;46.038;14.612;2023-04-26T06:53:07;98295.16;;;8.06;100.00
21902;BME280;11115;46.038;14.612;2023-04-26T06:55:36;98292.56;;;8.15;100.00
21902;BME280;11115;46.038;14.612;2023-04-26T06:58:21;98293.00;;;8.22;100.00
21902;BME280;11115;46.038;14.612;2023-04-26T07:00:53;98286.84;;;8.30;100.00
21902;BME280;11115;46.038;14.612;2023-04-26T07:03:38;98282.97;;;8.50;100.00
21902;BME280;11115;46.038;14.612;2023-04-26T07:06:16;98292.69;;;8.61;100.00
21902;BME280;11115;46.038;14.612;2023-04-26T07:08:59;98289.31;;;8.50;100.00
21902;BME280;11115;46.038;14.612;2023-04-26T07:11:37;98278.09;;;8.93;100.00
21902;BME280;11115;46.038;14.612;2023-04-26T07:14:17;98292.91;;;8.97;100.00
21902;BME280;11115;46.038;14.612;2023-04-26T07:16:49;98285.41;;;9.17;100.00
21902;BME280;11115;46.038;14.612;2023-04-26T07:19:19;98277.31;;;9.20;100.00
21902;BME280;11115;46.038;14.612;2023-04-26T07:21:55;98275.09;;;9.36;100.00
21902;BME280;11115;46.038;14.612;2023-04-26T07:24:26;98278.69;;;9.50;100.00
21902;BME280;11115;46.038;14.612;2023-04-26T07:27:00;98278.66;;;9.78;100.00
21902;BME280;11115;46.038;14.612;2023-04-26T07:29:31;98263.72;;;9.79;100.00
21902;BME280;11115;46.038;14.612;2023-04-26T07:32:06;98276.06;;;9.95;100.00
21902;BME280;11115;46.038;14.612;2023-04-26T07:34:46;98262.16;;;10.36;100.00
21902;BME280;11115;46.038;14.612;2023-04-26T07:37:22;98271.72;;;10.30;100.00
21902;BME280;11115;46.038;14.612;2023-04-26T07:40:01;98249.91;;;10.15;100.00
21902;BME280;11115;46.038;14.612;2023-04-26T07:42:35;98260.34;;;10.54;100.00
21902;BME280;11115;46.038;14.612;2023-04-26T07:45:08;98239.03;;;10.54;100.00
21902;BME280;11115;46.038;14.612;2023-04-26T07:47:44;98266.38;;;10.78;100.00
21902;BME280;11115;46.038;14.612;2023-04-26T07:50:12;98262.34;;;11.07;100.00
21902;BME280;11115;46.038;14.612;2023-04-26T07:52:44;98260.25;;;11.12;100.00
21902;BME280;11115;46.038;14.612;2023-04-26T07:55:19;98252.34;;;11.28;100.00
21902;BME280;11115;46.038;14.612;2023-04-26T07:57:48;98247.50;;;11.42;100.00
21902;BME280;11115;46.038;14.612;2023-04-26T08:00:22;98258.19;;;11.66;100.00
21902;BME280;11115;46.038;14.612;2023-04-26T08:02:55;98240.34;;;11.90;100.00
21902;BME280;11115;46.038;14.612;2023-04-26T08:05:40;98238.75;;;12.40;100.00
21902;BME280;11115;46.038;14.612;2023-04-26T08:08:14;98243.00;;;12.55;100.00
21902;BME280;11115;46.038;14.612;2023-04-26T08:10:51;98250.31;;;12.51;100.00
21902;BME280;11115;46.038;14.612;2023-04-26T08:13:25;98213.94;;;12.27;100.00
21902;BME280;11115;46.038;14.612;2023-04-26T08:15:57;98244.09;;;12.71;100.00
21902;BME280;11115;46.038;14.612;2023-04-26T08:18:35;98242.00;;;12.51;100.00
21902;BME280;11115;46.038;14.612;2023-04-26T08:21:17;98240.50;;;12.71;100.00
21902;BME280;11115;46.038;14.612;2023-04-26T08:23:49;98232.47;;;12.95;100.00
21902;BME280;11115;46.038;14.612;2023-04-26T08:26:19;98237.00;;;13.08;100.00
21902;BME280;11115;46.038;14.612;2023-04-26T08:28:53;98243.25;;;12.88;100.00
21902;BME280;11115;46.038;14.612;2023-04-26T08:31:28;98237.31;;;13.07;100.00
21902;BME280;11115;46.038;14.612;2023-04-26T08:34:01;98251.88;;;13.13;100.00
21902;BME280;11115;46.038;14.612;2023-04-26T08:36:35;98248.56;;;13.28;100.00
21902;BME280;11115;46.038;14.612;2023-04-26T08:39:07;98242.91;;;13.54;100.00
21902;BME280;11115;46.038;14.612;2023-04-26T08:41:53;98243.81;;;13.37;100.00
21902;BME280;11115;46.038;14.612;2023-04-26T08:44:27;98239.94;;;13.59;100.00
21902;BME280;11115;46.038;14.612;2023-04-26T08:47:38;98237.81;;;13.85;100.00
21902;BME280;11115;46.038;14.612;2023-04-26T08:50:11;98246.91;;;13.35;100.00
21902;BME280;11115;46.038;14.612;2023-04-26T08:52:50;98223.28;;;13.03;100.00
21902;BME280;11115;46.038;14.612;2023-04-26T08:55:25;98244.16;;;13.27;100.00
21902;BME280;11115;46.038;14.612;2023-04-26T08:58:11;98252.53;;;13.01;100.00
21902;BME280;11115;46.038;14.612;2023-04-26T09:00:55;98257.06;;;13.31;100.00
21902;BME280;11115;46.038;14.612;2023-04-26T09:03:39;98257.78;;;13.49;100.00
21902;BME280;11115;46.038;14.612;2023-04-26T09:06:15;98256.97;;;13.49;100.00
21902;BME280;11115;46.038;14.612;2023-04-26T09:08:46;98270.53;;;13.88;100.00
21902;BME280;11115;46.038;14.612;2023-04-26T09:11:15;98251.28;;;14.25;100.00
21902;BME280;11115;46.038;14.612;2023-04-26T09:13:51;98256.25;;;14.19;100.00
21902;BME280;11115;46.038;14.612;2023-04-26T09:16:34;98251.16;;;14.42;100.00
21902;BME280;11115;46.038;14.612;2023-04-26T09:19:05;98236.66;;;14.37;100.00
21902;BME280;11115;46.038;14.612;2023-04-26T09:22:00;98228.41;;;14.82;100.00
21902;BME280;11115;46.038;14.612;2023-04-26T09:24:58;98233.38;;;15.09;100.00
21902;BME280;11115;46.038;14.612;2023-04-26T09:27:44;98233.88;;;15.24;100.00
21902;BME280;11115;46.038;14.612;2023-04-26T09:30:16;98233.06;;;14.57;90.60
21902;BME280;11115;46.038;14.612;2023-04-26T09:32:52;98223.88;;;14.36;89.75
21902;BME280;11115;46.038;14.612;2023-04-26T09:35:41;98223.34;;;14.63;99.65
21902;BME280;11115;46.038;14.612;2023-04-26T09:38:15;98221.91;;;15.35;100.00
21902;BME280;11115;46.038;14.612;2023-04-26T09:40:48;98229.47;;;14.90;90.55
21902;BME280;11115;46.038;14.612;2023-04-26T09:43:38;98225.63;;;14.82;82.72
21902;BME280;11115;46.038;14.612;2023-04-26T09:46:08;98219.91;;;14.78;75.99
21902;BME280;11115;46.038;14.612;2023-04-26T09:48:43;98199.66;;;15.02;80.95
21902;BME280;11115;46.038;14.612;2023-04-26T09:51:12;98212.84;;;14.81;73.20
21902;BME280;11115;46.038;14.612;2023-04-26T09:53:48;98199.47;;;15.07;79.70
21902;BME280;11115;46.038;14.612;2023-04-26T09:56:21;98210.09;;;14.93;73.60
21902;BME280;11115;46.038;14.612;2023-04-26T09:58:57;98211.84;;;14.85;79.82
21902;BME280;11115;46.038;14.612;2023-04-26T10:01:33;98207.44;;;14.64;89.38
21902;BME280;11115;46.038;14.612;2023-04-26T10:04:06;98188.94;;;14.80;100.00
21902;BME280;11115;46.038;14.612;2023-04-26T10:06:37;98208.28;;;15.09;100.00
21902;BME280;11115;46.038;14.612;2023-04-26T10:09:06;98190.63;;;14.60;100.00
21902;BME280;11115;46.038;14.612;2023-04-26T10:11:54;98185.56;;;14.74;100.00
21902;BME280;11115;46.038;14.612;2023-04-26T10:14:35;98204.25;;;15.31;100.00
21902;BME280;11115;46.038;14.612;2023-04-26T10:17:09;98196.22;;;15.17;93.05
21902;BME280;11115;46.038;14.612;2023-04-26T10:19:42;98187.66;;;15.47;100.00
21902;BME280;11115;46.038;14.612;2023-04-26T10:22:20;98160.16;;;15.70;100.00
21902;BME280;11115;46.038;14.612;2023-04-26T10:24:58;98160.25;;;15.73;94.45
21902;BME280;11115;46.038;14.612;2023-04-26T10:27:46;98177.72;;;16.23;100.00
21902;BME280;11115;46.038;14.612;2023-04-26T10:30:28;98171.88;;;15.88;84.75
21902;BME280;11115;46.038;14.612;2023-04-26T10:33:13;98181.50;;;15.90;80.35
21902;BME280;11115;46.038;14.612;2023-04-26T10:39:37;98170.88;;;16.08;83.16
21902;BME280;11115;46.038;14.612;2023-04-26T10:42:27;98172.72;;;16.84;87.84
21902;BME280;11115;46.038;14.612;2023-04-26T10:45:39;98154.88;;;17.05;100.00
21902;BME280;11115;46.038;14.612;2023-04-26T10:48:22;98164.34;;;16.16;72.62
21902;BME280;11115;46.038;14.612;2023-04-26T10:59:21;98130.50;;;17.52;93.73
21902;BME280;11115;46.038;14.612;2023-04-26T11:02:12;98148.72;;;17.62;64.23
21902;BME280;11115;46.038;14.612;2023-04-26T11:04:58;98146.75;;;17.15;61.80
21902;BME280;11115;46.038;14.612;2023-04-26T11:07:36;98127.63;;;17.49;68.75
21902;BME280;11115;46.038;14.612;2023-04-26T11:10:24;98143.41;;;17.73;70.06
21902;BME280;11115;46.038;14.612;2023-04-26T11:13:02;98142.91;;;17.86;61.01
21902;BME280;11115;46.038;14.612;2023-04-26T11:15:31;98132.19;;;18.08;58.96
21902;BME280;11115;46.038;14.612;2023-04-26T11:18:03;98147.81;;;18.09;54.24
21902;BME280;11115;46.038;14.612;2023-04-26T11:20:36;98142.81;;;17.99;56.07
21902;BME280;11115;46.038;14.612;2023-04-26T11:23:07;98142.16;;;18.25;55.71
21902;BME280;11115;46.038;14.612;2023-04-26T11:25:49;98148.09;;;18.04;52.18
21902;BME280;11115;46.038;14.612;2023-04-26T11:28:26;98131.72;;;17.86;50.57
21902;BME280;11115;46.038;14.612;2023-04-26T11:30:55;98131.66;;;17.83;49.17
21902;BME280;11115;46.038;14.612;2023-04-26T11:33:28;98134.00;;;18.16;48.13
21902;BME280;11115;46.038;14.612;2023-04-26T11:36:05;98136.66;;;17.93;44.53
21902;BME280;11115;46.038;14.612;2023-04-26T11:38:42;98127.69;;;17.84;47.16
21902;BME280;11115;46.038;14.612;2023-04-26T11:41:10;98129.63;;;18.57;51.45
21902;BME280;11115;46.038;14.612;2023-04-26T11:43:39;98127.72;;;18.23;43.19
21902;BME280;11115;46.038;14.612;2023-04-26T11:46:21;98110.75;;;17.77;43.01
21902;BME280;11115;46.038;14.612;2023-04-26T11:48:55;98124.91;;;18.03;48.57
21902;BME280;11115;46.038;14.612;2023-04-26T11:51:28;98123.81;;;18.08;45.33
21902;BME280;11115;46.038;14.612;2023-04-26T11:54:05;98116.44;;;18.58;56.77
21902;BME280;11115;46.038;14.612;2023-04-26T11:56:37;98114.16;;;18.44;48.41
21902;BME280;11115;46.038;14.612;2023-04-26T11:59:09;98118.78;;;18.56;54.88
21902;BME280;11115;46.038;14.612;2023-04-26T12:01:49;98111.97;;;18.95;49.11
21902;BME280;11115;46.038;14.612;2023-04-26T12:04:26;98115.72;;;19.52;58.98
21902;BME280;11115;46.038;14.612;2023-04-26T12:07:05;98092.50;;;18.41;51.55
21902;BME280;11115;46.038;14.612;2023-04-26T12:09:39;98127.31;;;18.82;67.46
21902;BME280;11115;46.038;14.612;2023-04-26T12:12:11;98116.44;;;18.38;60.31
21902;BME280;11115;46.038;14.612;2023-04-26T12:14:48;98074.94;;;18.63;56.05
21902;BME280;11115;46.038;14.612;2023-04-26T12:17:17;98099.66;;;19.26;67.55
21902;BME280;11115;46.038;14.612;2023-04-26T12:19:49;98102.28;;;19.65;75.81
21902;BME280;11115;46.038;14.612;2023-04-26T12:22:21;98098.84;;;19.49;63.64
21902;BME280;11115;46.038;14.612;2023-04-26T12:24:49;98080.34;;;19.21;51.86
21902;BME280;11115;46.038;14.612;2023-04-26T12:27:23;98086.84;;;18.60;56.40
21902;BME280;11115;46.038;14.612;2023-04-26T12:30:00;98079.75;;;18.86;49.99
21902;BME280;11115;46.038;14.612;2023-04-26T12:33:00;98088.81;;;19.74;50.90
21902;BME280;11115;46.038;14.612;2023-04-26T12:35:45;98066.38;;;19.74;50.69
21902;BME280;11115;46.038;14.612;2023-04-26T12:38:32;98080.91;;;20.13;51.12
21902;BME280;11115;46.038;14.612;2023-04-26T12:41:19;98083.38;;;19.09;43.75
21902;BME280;11115;46.038;14.612;2023-04-26T12:43:56;98090.47;;;19.03;55.06
21902;BME280;11115;46.038;14.612;2023-04-26T12:46:23;98083.44;;;18.90;55.84
21902;BME280;11115;46.038;14.612;2023-04-26T12:49:04;98074.78;;;18.75;51.05
21902;BME280;11115;46.038;14.612;2023-04-26T12:51:36;98071.84;;;19.14;51.59
21902;BME280;11115;46.038;14.612;2023-04-26T12:54:09;98077.34;;;19.33;50.35
21902;BME280;11115;46.038;14.612;2023-04-26T12:56:54;98071.22;;;19.77;55.12
21902;BME280;11115;46.038;14.612;2023-04-26T12:59:34;98081.09;;;19.97;46.39
21902;BME280;11115;46.038;14.612;2023-04-26T13:02:12;98076.38;;;18.99;42.68
21902;BME280;11115;46.038;14.612;2023-04-26T13:04:44;98075.63;;;18.37;43.53
21902;BME280;11115;46.038;14.612;2023-04-26T13:07:22;98067.88;;;18.92;54.97
21902;BME280;11115;46.038;14.612;2023-04-26T13:09:53;98079.19;;;18.57;60.29
21902;BME280;11115;46.038;14.612;2023-04-26T13:12:27;98064.63;;;18.29;57.83
21902;BME280;11115;46.038;14.612;2023-04-26T13:14:58;98077.03;;;18.28;52.93
21902;BME280;11115;46.038;14.612;2023-04-26T13:17:32;98066.19;;;17.87;46.09
21902;BME280;11115;46.038;14.612;2023-04-26T13:20:04;98075.69;;;17.83;43.74
21902;BME280;11115;46.038;14.612;2023-04-26T13:22:41;98038.28;;;17.91;42.02
21902;BME280;11115;46.038;14.612;2023-04-26T13:25:10;98075.56;;;18.14;42.65
21902;BME280;11115;46.038;14.612;2023-04-26T13:27:40;98070.34;;;18.74;48.85
21902;BME280;11115;46.038;14.612;2023-04-26T13:30:11;98072.94;;;18.44;43.31
21902;BME280;11115;46.038;14.612;2023-04-26T13:32:41;98074.13;;;18.43;55.60
21902;BME280;11115;46.038;14.612;2023-04-26T13:35:13;98074.53;;;23.80;42.66
21902;BME280;11115;46.038;14.612;2023-04-26T13:37:57;98070.88;;;28.67;37.42
21902;BME280;11115;46.038;14.612;2023-04-26T13:40:28;98065.69;;;29.18;37.63
21902;BME280;11115;46.038;14.612;2023-04-26T13:43:02;98065.53;;;29.74;35.05
21902;BME280;11115;46.038;14.612;2023-04-26T13:45:31;98065.03;;;29.91;29.46
21902;BME280;11115;46.038;14.612;2023-04-26T13:48:09;98058.56;;;28.93;30.36